createdAt,value
2023-01-25T00:02:02.206Z,100.00
2023-01-25T00:04:28.786Z,100.00
2023-01-25T00:06:55.280Z,100.00
2023-01-25T00:09:22.065Z,100.00
2023-01-25T00:11:48.507Z,100.00
2023-01-25T00:14:15.652Z,100.00
2023-01-25T00:16:42.838Z,100.00
2023-01-25T00:19:10.422Z,100.00
2023-01-25T00:21:37.280Z,100.00
2023-01-25T00:24:04.197Z,100.00
2023-01-25T00:26:31.227Z,100.00
2023-01-25T00:28:57.688Z,100.00
2023-01-25T00:31:43.160Z,100.00
2023-01-25T00:34:21.537Z,100.00
2023-01-25T00:36:49.898Z,100.00
2023-01-25T00:39:16.502Z,100.00
2023-01-25T00:41:43.474Z,100.00
2023-01-25T00:44:10.183Z,100.00
2023-01-25T00:46:36.634Z,100.00
2023-01-25T00:49:03.196Z,100.00
2023-01-25T00:51:29.653Z,100.00
2023-01-25T00:53:56.200Z,100.00
2023-01-25T00:56:22.864Z,100.00
2023-01-25T00:58:49.374Z,100.00
2023-01-25T01:01:15.882Z,100.00
2023-01-25T01:03:42.357Z,100.00
2023-01-25T01:06:11.090Z,100.00
2023-01-25T01:08:41.212Z,100.00
2023-01-25T01:11:09.791Z,100.00
2023-01-25T01:13:36.691Z,100.00
2023-01-25T01:16:04.057Z,100.00
2023-01-25T01:18:34.467Z,100.00
2023-01-25T01:21:00.928Z,100.00
2023-01-25T01:23:28.418Z,100.00
2023-01-25T01:25:54.827Z,100.00
2023-01-25T01:28:21.289Z,100.00
2023-01-25T01:30:47.713Z,100.00
2023-01-25T01:33:14.185Z,100.00
2023-01-25T01:35:40.605Z,100.00
2023-01-25T01:38:07.199Z,100.00
2023-01-25T01:40:33.693Z,100.00
2023-01-25T01:43:04.584Z,100.00
2023-01-25T01:45:51.197Z,100.00
2023-01-25T01:48:33.019Z,100.00
2023-01-25T01:51:19.888Z,100.00
2023-01-25T01:53:49.996Z,100.00
2023-01-25T01:56:21.169Z,100.00
2023-01-25T01:58:49.476Z,100.00
2023-01-25T02:01:17.224Z,100.00
2023-01-25T02:04:02.511Z,100.00
2023-01-25T02:06:34.585Z,100.00
2023-01-25T02:09:01.849Z,100.00
2023-01-25T02:11:29.215Z,100.00
2023-01-25T02:13:58.115Z,100.00
2023-01-25T02:16:25.749Z,100.00
2023-01-25T02:18:53.732Z,99.87
2023-01-25T02:21:20.981Z,100.00
2023-01-25T02:23:50.427Z,100.00
2023-01-25T02:26:18.523Z,99.72
2023-01-25T02:28:47.971Z,99.37
2023-01-25T02:31:14.483Z,99.58
2023-01-25T02:33:40.936Z,99.52
2023-01-25T02:36:07.380Z,99.46
2023-01-25T02:38:39.183Z,99.14
2023-01-25T02:41:09.027Z,99.84
2023-01-25T02:43:35.900Z,100.00
2023-01-25T02:46:06.284Z,99.91
2023-01-25T02:48:32.777Z,100.00
2023-01-25T02:50:59.214Z,100.00
2023-01-25T02:53:25.688Z,100.00
2023-01-25T02:55:52.110Z,99.72
2023-01-25T02:58:18.572Z,99.49
2023-01-25T03:00:44.982Z,99.33
2023-01-25T03:03:11.435Z,99.37
2023-01-25T03:05:37.920Z,99.54
2023-01-25T03:08:04.436Z,99.75
2023-01-25T03:10:30.861Z,99.66
2023-01-25T03:12:57.341Z,99.74
2023-01-25T03:15:23.815Z,99.44
2023-01-25T03:17:50.285Z,99.42
2023-01-25T03:20:16.812Z,99.22
2023-01-25T03:22:43.259Z,99.11
2023-01-25T03:25:10.153Z,99.57
2023-01-25T03:27:36.985Z,99.54
2023-01-25T03:30:03.768Z,99.32
2023-01-25T03:32:30.357Z,99.05
2023-01-25T03:34:56.837Z,98.77
2023-01-25T03:37:23.321Z,98.54
2023-01-25T03:39:49.769Z,98.36
2023-01-25T03:42:16.203Z,98.56
2023-01-25T03:44:42.665Z,98.18
2023-01-25T03:47:09.153Z,98.04
2023-01-25T03:49:35.705Z,97.97
2023-01-25T03:52:02.177Z,98.21
2023-01-25T03:54:28.657Z,97.57
2023-01-25T03:56:55.223Z,97.72
2023-01-25T03:59:21.655Z,97.77
2023-01-25T04:01:48.187Z,97.84
2023-01-25T04:04:14.637Z,97.73
2023-01-25T04:06:41.091Z,97.93
2023-01-25T04:09:07.788Z,97.99
2023-01-25T04:11:34.402Z,97.89
2023-01-25T04:14:01.099Z,97.60
2023-01-25T04:16:28.141Z,97.17
2023-01-25T04:18:54.551Z,96.69
2023-01-25T04:21:20.983Z,96.50
2023-01-25T04:23:47.492Z,97.37
2023-01-25T04:26:14.604Z,97.74
2023-01-25T04:28:41.048Z,97.48
2023-01-25T04:31:07.563Z,97.34
2023-01-25T04:33:34.302Z,97.50
2023-01-25T04:36:00.751Z,97.14
2023-01-25T04:38:27.441Z,96.79
2023-01-25T04:40:53.886Z,97.37
2023-01-25T04:43:20.744Z,97.47
2023-01-25T04:45:47.494Z,97.24
2023-01-25T04:48:14.465Z,97.36
2023-01-25T04:50:41.731Z,96.94
2023-01-25T04:53:08.981Z,96.64
2023-01-25T04:55:35.551Z,97.14
2023-01-25T04:58:02.599Z,96.92
2023-01-25T05:00:29.599Z,96.83
2023-01-25T05:02:56.048Z,96.77
2023-01-25T05:05:22.724Z,96.66
2023-01-25T05:07:49.349Z,96.54
2023-01-25T05:10:16.017Z,96.68
2023-01-25T05:12:42.467Z,96.55
2023-01-25T05:15:09.390Z,96.84
2023-01-25T05:17:36.060Z,96.63
2023-01-25T05:20:02.819Z,96.63
2023-01-25T05:22:29.383Z,96.79
2023-01-25T05:24:55.833Z,96.89
2023-01-25T05:27:22.982Z,97.00
2023-01-25T05:29:49.435Z,96.98
2023-01-25T05:32:20.297Z,96.92
2023-01-25T05:34:47.051Z,96.90
2023-01-25T05:37:15.360Z,96.56
2023-01-25T05:39:41.815Z,96.68
2023-01-25T05:42:12.641Z,96.44
2023-01-25T05:44:39.139Z,96.71
2023-01-25T05:47:05.668Z,96.67
2023-01-25T05:49:32.116Z,96.82
2023-01-25T05:51:58.551Z,97.17
2023-01-25T05:54:25.076Z,97.56
2023-01-25T05:56:51.540Z,97.79
2023-01-25T05:59:18.111Z,98.03
2023-01-25T06:01:44.815Z,98.53
2023-01-25T06:04:15.495Z,98.58
2023-01-25T06:06:42.133Z,98.58
2023-01-25T06:09:10.339Z,98.75
2023-01-25T06:11:36.779Z,98.74
2023-01-25T06:14:03.424Z,98.67
2023-01-25T06:16:29.876Z,98.33
2023-01-25T06:18:56.347Z,98.32
2023-01-25T06:21:22.784Z,97.99
2023-01-25T06:23:49.260Z,98.10
2023-01-25T06:26:15.782Z,98.34
2023-01-25T06:28:42.323Z,98.45
2023-01-25T06:31:13.130Z,98.34
2023-01-25T06:33:40.324Z,98.12
2023-01-25T06:36:11.853Z,98.25
2023-01-25T06:38:38.868Z,98.21
2023-01-25T06:41:06.071Z,98.39
2023-01-25T06:43:34.606Z,98.14
2023-01-25T06:46:01.888Z,97.75
2023-01-25T06:48:29.210Z,96.99
2023-01-25T06:50:56.775Z,96.17
2023-01-25T06:53:24.496Z,95.99
2023-01-25T06:55:56.400Z,96.34
2023-01-25T06:58:23.080Z,96.38
2023-01-25T07:00:49.657Z,94.98
2023-01-25T07:03:16.094Z,95.17
2023-01-25T07:05:42.527Z,95.32
2023-01-25T07:08:08.951Z,95.22
2023-01-25T07:10:35.424Z,94.92
2023-01-25T07:13:01.923Z,95.43
2023-01-25T07:15:28.422Z,95.26
2023-01-25T07:17:54.873Z,95.69
2023-01-25T07:20:21.318Z,95.16
2023-01-25T07:22:47.751Z,95.47
2023-01-25T07:25:14.343Z,95.60
2023-01-25T07:27:40.817Z,95.78
2023-01-25T07:30:07.478Z,95.90
2023-01-25T07:32:34.484Z,96.02
2023-01-25T07:35:00.996Z,95.94
2023-01-25T07:37:27.874Z,96.02
2023-01-25T07:39:55.238Z,95.88
2023-01-25T07:42:21.702Z,95.32
2023-01-25T07:44:48.167Z,95.21
2023-01-25T07:47:15.312Z,95.12
2023-01-25T07:49:41.843Z,92.98
2023-01-25T07:52:08.369Z,93.74
2023-01-25T07:54:34.998Z,94.59
2023-01-25T07:57:01.428Z,93.67
2023-01-25T07:59:28.104Z,94.82
2023-01-25T08:01:54.607Z,95.02
2023-01-25T08:04:21.187Z,95.75
2023-01-25T08:06:47.626Z,95.51
2023-01-25T08:09:19.948Z,95.69
2023-01-25T08:11:47.275Z,95.24
2023-01-25T08:14:13.711Z,95.67
2023-01-25T08:16:40.181Z,95.64
2023-01-25T08:19:07.263Z,95.40
2023-01-25T08:21:34.782Z,95.25
2023-01-25T08:24:03.905Z,95.17
2023-01-25T08:26:30.433Z,93.67
2023-01-25T08:28:57.159Z,92.95
2023-01-25T08:31:30.673Z,92.54
2023-01-25T08:33:57.364Z,92.51
2023-01-25T08:36:24.376Z,92.83
2023-01-25T08:38:53.966Z,93.02
2023-01-25T08:41:20.516Z,93.06
2023-01-25T08:43:47.340Z,92.75
2023-01-25T08:46:14.760Z,92.51
2023-01-25T08:48:41.242Z,91.86
2023-01-25T08:51:15.266Z,91.73
2023-01-25T08:53:41.985Z,91.90
2023-01-25T08:56:10.088Z,92.32
2023-01-25T08:58:40.770Z,92.00
2023-01-25T09:01:09.092Z,91.85
2023-01-25T09:03:36.970Z,92.13
2023-01-25T09:06:03.768Z,91.55
2023-01-25T09:08:30.205Z,91.59
2023-01-25T09:11:00.607Z,91.17
2023-01-25T09:13:27.069Z,91.98
2023-01-25T09:15:58.527Z,91.89
2023-01-25T09:18:25.040Z,91.35
2023-01-25T09:20:51.474Z,90.68
2023-01-25T09:23:19.664Z,90.46
2023-01-25T09:25:46.108Z,91.09
2023-01-25T09:28:12.548Z,91.73
2023-01-25T09:30:47.303Z,91.45
2023-01-25T09:33:16.413Z,91.52
2023-01-25T09:35:47.255Z,91.55
2023-01-25T09:38:13.710Z,91.52
2023-01-25T09:40:45.491Z,91.61
2023-01-25T09:43:24.303Z,90.68
2023-01-25T09:45:50.869Z,91.19
2023-01-25T09:48:36.332Z,91.18
2023-01-25T09:51:02.755Z,91.77
2023-01-25T09:53:32.196Z,92.05
2023-01-25T09:56:01.351Z,91.61
2023-01-25T09:58:40.005Z,91.98
2023-01-25T10:01:17.789Z,90.96
2023-01-25T10:04:10.435Z,91.42
2023-01-25T10:06:39.479Z,91.44
2023-01-25T10:09:12.007Z,91.93
2023-01-25T10:11:39.290Z,91.48
2023-01-25T10:14:12.581Z,91.89
2023-01-25T10:16:39.004Z,91.39
2023-01-25T10:19:14.940Z,91.50
2023-01-25T10:21:43.500Z,91.40
2023-01-25T10:24:12.732Z,91.15
2023-01-25T10:26:42.409Z,91.12
2023-01-25T10:29:11.960Z,90.80
2023-01-25T10:31:50.584Z,90.94
2023-01-25T10:34:20.290Z,90.52
2023-01-25T10:36:49.343Z,89.72
2023-01-25T10:39:17.277Z,89.86
2023-01-25T10:41:47.507Z,90.70
2023-01-25T10:44:26.821Z,91.33
2023-01-25T10:47:02.453Z,91.45
2023-01-25T10:49:34.878Z,91.29
2023-01-25T10:52:18.210Z,89.57
2023-01-25T10:54:45.085Z,90.71
2023-01-25T10:57:17.340Z,90.71
2023-01-25T10:59:48.219Z,90.45
2023-01-25T11:02:33.383Z,89.97
2023-01-25T11:05:15.473Z,89.35
2023-01-25T11:07:41.923Z,88.30
2023-01-25T11:10:27.411Z,87.88
2023-01-25T11:13:12.780Z,87.59
2023-01-25T11:15:39.628Z,87.31
2023-01-25T11:18:07.136Z,87.07
2023-01-25T11:20:33.590Z,86.98
2023-01-25T11:23:00.185Z,87.28
2023-01-25T11:25:31.343Z,87.76
2023-01-25T11:28:16.524Z,88.38
2023-01-25T11:30:43.233Z,88.57
2023-01-25T11:33:14.281Z,89.11
2023-01-25T11:35:47.772Z,88.60
2023-01-25T11:38:16.657Z,89.16
2023-01-25T11:40:47.122Z,89.49
2023-01-25T11:43:32.527Z,90.09
2023-01-25T11:46:05.106Z,90.04
2023-01-25T11:48:50.516Z,90.39
2023-01-25T11:51:33.615Z,90.11
2023-01-25T11:54:16.039Z,90.82
2023-01-25T11:56:54.768Z,91.12
2023-01-25T11:59:29.012Z,91.54
2023-01-25T12:02:14.274Z,92.18
2023-01-25T12:04:43.538Z,92.30
2023-01-25T12:07:16.291Z,92.57
2023-01-25T12:09:50.603Z,93.07
2023-01-25T12:12:32.287Z,93.64
2023-01-25T12:14:58.718Z,93.70
2023-01-25T12:17:32.513Z,94.14
2023-01-25T12:20:10.234Z,94.53
2023-01-25T12:22:43.023Z,94.18
2023-01-25T12:25:30.393Z,94.09
2023-01-25T12:28:02.945Z,93.96
2023-01-25T12:30:48.125Z,93.62
2023-01-25T12:33:37.709Z,93.92
2023-01-25T12:36:04.233Z,94.02
2023-01-25T12:38:36.943Z,94.24
2023-01-25T12:41:08.451Z,93.98
2023-01-25T12:44:04.418Z,94.17
2023-01-25T12:46:34.661Z,93.99
2023-01-25T12:49:04.445Z,94.22
2023-01-25T12:51:34.680Z,93.83
2023-01-25T12:54:06.842Z,93.91
2023-01-25T12:56:44.216Z,93.05
2023-01-25T12:59:36.650Z,92.91
2023-01-25T13:02:06.162Z,92.96
2023-01-25T13:04:51.309Z,92.79
2023-01-25T13:07:20.471Z,93.19
2023-01-25T13:09:55.275Z,93.32
2023-01-25T13:12:21.842Z,93.16
2023-01-25T13:14:48.352Z,93.01
2023-01-25T13:17:30.575Z,93.11
2023-01-25T13:19:57.245Z,92.98
2023-01-25T13:22:42.929Z,93.13
2023-01-25T13:25:21.674Z,93.54
2023-01-25T13:27:48.274Z,93.20
2023-01-25T13:30:27.077Z,93.33
2023-01-25T13:32:55.642Z,92.42
2023-01-25T13:35:26.707Z,92.51
2023-01-25T13:38:01.221Z,92.90
2023-01-25T13:40:30.531Z,92.78
2023-01-25T13:43:05.097Z,92.80
2023-01-25T13:45:34.168Z,92.89
2023-01-25T13:48:27.796Z,93.08
2023-01-25T13:50:57.896Z,92.99
2023-01-25T13:53:26.650Z,93.18
2023-01-25T13:55:54.813Z,92.92
2023-01-25T13:58:25.475Z,92.63
2023-01-25T14:00:56.230Z,92.17
2023-01-25T14:03:25.738Z,92.65
2023-01-25T14:05:53.551Z,92.49
2023-01-25T14:08:20.997Z,92.59
2023-01-25T14:10:48.460Z,92.79
2023-01-25T14:13:15.966Z,92.41
2023-01-25T14:15:51.675Z,91.86
2023-01-25T14:18:19.524Z,91.39
2023-01-25T14:20:47.219Z,91.14
2023-01-25T14:23:21.001Z,91.49
2023-01-25T14:25:47.457Z,91.84
2023-01-25T14:28:14.579Z,90.76
2023-01-25T14:30:41.487Z,91.08
2023-01-25T14:33:26.099Z,91.81
2023-01-25T14:35:57.397Z,92.63
2023-01-25T14:38:31.392Z,92.09
2023-01-25T14:41:03.673Z,92.19
2023-01-25T14:43:30.627Z,92.50
2023-01-25T14:45:57.476Z,91.93
2023-01-25T14:48:33.957Z,91.80
2023-01-25T14:51:30.181Z,91.67
2023-01-25T14:53:59.785Z,92.18
2023-01-25T14:56:35.330Z,92.12
2023-01-25T14:59:02.824Z,92.49
2023-01-25T15:01:31.760Z,92.33
2023-01-25T15:03:58.326Z,92.41
2023-01-25T15:06:24.919Z,92.77
2023-01-25T15:08:51.331Z,92.21
2023-01-25T15:11:45.379Z,92.01
2023-01-25T15:14:15.407Z,91.76
2023-01-25T15:16:42.952Z,91.51
2023-01-25T15:19:22.518Z,92.04
2023-01-25T15:21:48.992Z,92.26
2023-01-25T15:24:15.544Z,92.29
2023-01-25T15:26:41.999Z,92.73
2023-01-25T15:29:13.842Z,92.81
2023-01-25T15:31:40.523Z,93.35
2023-01-25T15:34:11.439Z,93.81
2023-01-25T15:36:37.867Z,93.65
2023-01-25T15:39:04.444Z,93.92
2023-01-25T15:41:30.866Z,93.76
2023-01-25T15:43:57.301Z,93.93
2023-01-25T15:46:25.188Z,93.99
2023-01-25T15:48:51.654Z,93.86
2023-01-25T15:51:18.469Z,94.03
2023-01-25T15:53:45.256Z,94.19
2023-01-25T15:56:22.205Z,94.03
2023-01-25T15:58:56.991Z,94.00
2023-01-25T16:01:24.170Z,93.81
2023-01-25T16:03:51.022Z,93.75
2023-01-25T16:06:23.708Z,93.97
2023-01-25T16:08:50.288Z,93.98
2023-01-25T16:11:16.728Z,94.21
2023-01-25T16:13:43.146Z,94.24
2023-01-25T16:16:17.208Z,93.69
2023-01-25T16:18:43.643Z,93.80
2023-01-25T16:21:12.477Z,94.04
2023-01-25T16:23:39.434Z,94.33
2023-01-25T16:26:15.085Z,94.48
2023-01-25T16:28:41.514Z,94.33
2023-01-25T16:31:16.708Z,94.60
2023-01-25T16:33:49.256Z,94.80
2023-01-25T16:36:17.456Z,94.73
2023-01-25T16:38:44.426Z,94.31
2023-01-25T16:41:13.439Z,94.14
2023-01-25T16:43:42.927Z,93.61
2023-01-25T16:46:17.467Z,93.20
2023-01-25T16:48:44.917Z,93.63
2023-01-25T16:51:18.612Z,93.90
2023-01-25T16:53:45.684Z,93.52
2023-01-25T16:56:18.312Z,93.43
2023-01-25T16:58:45.522Z,93.33
2023-01-25T17:01:12.745Z,93.51
2023-01-25T17:03:39.450Z,93.04
2023-01-25T17:06:06.199Z,93.30
2023-01-25T17:08:33.295Z,93.03
2023-01-25T17:11:04.095Z,93.10
2023-01-25T17:13:30.522Z,93.50
2023-01-25T17:15:57.039Z,93.51
2023-01-25T17:18:23.516Z,93.45
2023-01-25T17:20:57.097Z,93.48
2023-01-25T17:23:23.594Z,93.01
2023-01-25T17:25:50.029Z,92.92
2023-01-25T17:28:16.474Z,92.89
2023-01-25T17:30:43.585Z,93.04
2023-01-25T17:33:10.152Z,93.48
2023-01-25T17:35:37.579Z,93.85
2023-01-25T17:38:04.025Z,93.81
2023-01-25T17:40:30.500Z,93.78
2023-01-25T17:42:56.968Z,93.94
2023-01-25T17:45:23.404Z,93.81
2023-01-25T17:47:49.900Z,93.88
2023-01-25T17:50:16.507Z,93.74
2023-01-25T17:52:42.979Z,93.42
2023-01-25T17:55:09.840Z,93.59
2023-01-25T17:57:37.271Z,93.43
2023-01-25T18:00:07.544Z,93.37
2023-01-25T18:02:34.081Z,93.25
2023-01-25T18:05:00.557Z,93.27
2023-01-25T18:07:26.995Z,92.94
2023-01-25T18:09:53.710Z,92.86
2023-01-25T18:12:20.755Z,92.92
2023-01-25T18:14:47.377Z,92.96
2023-01-25T18:17:13.805Z,92.98
2023-01-25T18:19:40.288Z,92.96
2023-01-25T18:22:06.752Z,92.78
2023-01-25T18:24:34.170Z,92.81
2023-01-25T18:27:06.088Z,92.93
2023-01-25T18:30:01.998Z,92.88
2023-01-25T18:32:29.886Z,92.71
2023-01-25T18:34:56.685Z,92.18
2023-01-25T18:37:25.709Z,92.04
2023-01-25T18:39:53.201Z,92.80
2023-01-25T18:42:20.668Z,92.81
2023-01-25T18:44:48.551Z,92.63
2023-01-25T18:47:18.620Z,92.33
2023-01-25T18:49:52.001Z,92.15
2023-01-25T18:52:19.682Z,91.99
2023-01-25T18:54:46.585Z,92.62
2023-01-25T18:57:13.676Z,92.38
2023-01-25T18:59:40.531Z,92.12
2023-01-25T19:02:07.804Z,91.92
2023-01-25T19:04:34.445Z,92.05
2023-01-25T19:07:01.683Z,92.56
2023-01-25T19:09:28.419Z,92.87
2023-01-25T19:11:55.252Z,92.98
2023-01-25T19:14:22.104Z,92.95
2023-01-25T19:16:48.851Z,92.68
2023-01-25T19:19:15.327Z,92.45
2023-01-25T19:21:41.855Z,92.50
2023-01-25T19:24:12.099Z,92.50
2023-01-25T19:26:39.026Z,92.20
2023-01-25T19:29:05.576Z,92.93
2023-01-25T19:31:32.672Z,93.28
2023-01-25T19:34:00.533Z,93.08
2023-01-25T19:36:28.567Z,92.94
2023-01-25T19:38:55.070Z,92.80
2023-01-25T19:41:22.721Z,92.83
2023-01-25T19:43:52.751Z,92.87
2023-01-25T19:46:20.709Z,92.35
2023-01-25T19:48:49.930Z,92.80
2023-01-25T19:51:27.654Z,92.12
2023-01-25T19:53:54.100Z,92.58
2023-01-25T19:56:20.614Z,93.01
2023-01-25T19:58:48.364Z,93.10
2023-01-25T20:01:16.618Z,92.35
2023-01-25T20:03:43.149Z,92.61
2023-01-25T20:06:10.405Z,92.51
2023-01-25T20:08:38.454Z,92.84
2023-01-25T20:11:07.385Z,92.95
2023-01-25T20:13:33.819Z,92.78
2023-01-25T20:16:00.470Z,92.66
2023-01-25T20:18:27.019Z,92.50
2023-01-25T20:20:57.580Z,92.16
2023-01-25T20:23:24.179Z,91.95
2023-01-25T20:25:57.721Z,91.92
2023-01-25T20:28:24.404Z,91.96
2023-01-25T20:30:50.933Z,91.88
2023-01-25T20:33:18.188Z,92.11
2023-01-25T20:35:45.283Z,92.18
2023-01-25T20:38:11.780Z,92.01
2023-01-25T20:40:38.314Z,91.86
2023-01-25T20:43:04.794Z,91.59
2023-01-25T20:45:31.319Z,91.77
2023-01-25T20:47:57.757Z,90.80
2023-01-25T20:50:24.202Z,91.53
2023-01-25T20:52:50.793Z,91.39
2023-01-25T20:55:17.272Z,91.06
2023-01-25T20:57:43.700Z,90.69
2023-01-25T21:00:10.833Z,91.26
2023-01-25T21:02:40.115Z,91.48
2023-01-25T21:05:06.768Z,91.35
2023-01-25T21:07:33.261Z,91.57
2023-01-25T21:09:59.698Z,91.39
2023-01-25T21:12:26.153Z,91.35
2023-01-25T21:14:52.751Z,90.92
2023-01-25T21:17:19.191Z,90.57
2023-01-25T21:19:47.730Z,90.74
2023-01-25T21:22:14.472Z,90.83
2023-01-25T21:24:40.960Z,90.67
2023-01-25T21:27:08.086Z,90.75
2023-01-25T21:29:34.572Z,90.48
2023-01-25T21:32:01.072Z,90.52
2023-01-25T21:34:27.543Z,90.32
2023-01-25T21:36:54.586Z,90.33
2023-01-25T21:39:21.110Z,89.91
2023-01-25T21:41:47.620Z,90.75
2023-01-25T21:44:32.827Z,90.63
2023-01-25T21:50:04.315Z,90.41
2023-01-25T21:52:30.806Z,89.57
2023-01-25T21:54:57.347Z,89.09
2023-01-25T21:57:23.798Z,89.64
2023-01-25T21:59:51.960Z,89.90
2023-01-25T22:02:20.258Z,89.72
2023-01-25T22:04:46.751Z,89.75
2023-01-25T22:07:13.196Z,89.81
2023-01-25T22:09:39.665Z,89.68
2023-01-25T22:12:06.163Z,89.17
2023-01-25T22:14:32.641Z,89.72
2023-01-25T22:16:59.100Z,89.52
2023-01-25T22:19:25.586Z,89.74
2023-01-25T22:21:52.103Z,89.62
2023-01-25T22:24:18.846Z,89.42
2023-01-25T22:26:45.315Z,88.80
2023-01-25T22:29:12.254Z,89.20
2023-01-25T22:31:38.864Z,89.05
2023-01-25T22:34:05.379Z,89.27
2023-01-25T22:36:31.888Z,89.10
2023-01-25T22:39:00.331Z,89.20
2023-01-25T22:41:28.490Z,89.10
2023-01-25T22:43:55.361Z,88.88
2023-01-25T22:46:23.147Z,88.87
2023-01-25T22:48:49.826Z,88.92
2023-01-25T22:51:18.321Z,88.84
2023-01-25T22:53:44.801Z,88.40
2023-01-25T22:56:12.533Z,88.74
2023-01-25T22:58:39.952Z,88.78
2023-01-25T23:01:10.565Z,88.44
2023-01-25T23:03:37.543Z,88.46
2023-01-25T23:06:05.586Z,88.67
2023-01-25T23:08:33.746Z,88.89
2023-01-25T23:11:05.297Z,88.79
2023-01-25T23:13:32.321Z,88.59
2023-01-25T23:16:03.234Z,88.73
2023-01-25T23:18:48.395Z,88.32
2023-01-25T23:21:15.666Z,86.38
2023-01-25T23:23:43.185Z,87.52
2023-01-25T23:26:09.665Z,88.01
2023-01-25T23:28:37.256Z,88.33
2023-01-25T23:31:17.726Z,87.90
2023-01-25T23:33:45.340Z,88.23
2023-01-25T23:36:13.850Z,88.25
2023-01-25T23:38:40.494Z,87.76
2023-01-25T23:41:06.934Z,88.04
2023-01-25T23:43:33.908Z,87.79
2023-01-25T23:46:00.508Z,87.45
2023-01-25T23:48:27.287Z,87.04
2023-01-25T23:50:54.318Z,88.07
2023-01-25T23:53:20.809Z,87.63
2023-01-25T23:55:53.429Z,87.68
2023-01-25T23:58:20.846Z,87.93
